Time;durP1;ratioP1;P1;durP2;ratioP2;P2;SDS_P1;SDS_P2;PMS_P1;PMS_P2;Temp;Humidity;BMP_temperature;BMP_pressure;BME280_temperature;BME280_humidity;BME280_pressure;Samples;Min_cycle;Max_cycle;Signal;HPM_P1;HPM_P2
2022/09/07 00:00:34;;;;;;;11.80;11.10;;;;;;;14.70;89.28;93312.94;5089305;28;20224;-72
2022/09/07 00:02:59;;;;;;;11.97;11.17;;;;;;;14.73;89.35;93317.63;5089345;28;20276;-72
2022/09/07 00:05:25;;;;;;;12.33;11.53;;;;;;;14.70;89.60;93307.69;5088107;28;20228;-71
2022/09/07 00:07:50;;;;;;;11.53;10.73;;;;;;;14.66;89.63;93311.97;5088938;28;20172;-72
2022/09/07 00:10:16;;;;;;;13.13;12.23;;;;;;;14.48;90.40;93306.44;5078653;28;20224;-72
2022/09/07 00:12:41;;;;;;;12.37;11.57;;;;;;;14.61;90.93;93327.78;5088960;28;20185;-71
2022/09/07 00:15:10;;;;;;;11.97;11.10;;;;;;;14.72;90.66;93322.13;5078716;28;20246;-72
2022/09/07 00:17:36;;;;;;;12.23;11.43;;;;;;;14.62;90.47;93324.88;5090681;28;20188;-72
2022/09/07 00:20:04;;;;;;;12.50;11.53;;;;;;;14.59;90.66;93332.53;5088613;28;20223;-72
2022/09/07 00:22:30;;;;;;;12.10;11.20;;;;;;;14.62;90.44;93319.63;5090113;28;20217;-71
2022/09/07 00:24:55;;;;;;;10.77;10.07;;;;;;;14.61;90.46;93319.91;5089958;28;20231;-71
2022/09/07 00:27:20;;;;;;;12.67;11.77;;;;;;;14.44;90.94;93310.69;5090632;28;20169;-71
2022/09/07 00:29:46;;;;;;;12.63;11.73;;;;;;;14.51;90.72;93312.19;5089665;28;20219;-70
2022/09/07 00:32:11;;;;;;;12.10;11.33;;;;;;;14.34;91.34;93316.09;5090592;28;20188;-71
2022/09/07 00:34:37;;;;;;;11.93;11.23;;;;;;;14.17;92.23;93297.38;5088981;28;20284;-71
2022/09/07 00:37:02;;;;;;;12.07;11.33;;;;;;;14.10;92.25;93304.81;5090249;28;20191;-72
2022/09/07 00:39:27;;;;;;;12.90;11.70;;;;;;;14.19;92.00;93316.25;5089601;28;20232;-71
2022/09/07 00:41:53;;;;;;;13.53;12.43;;;;;;;14.23;91.43;93319.09;5086224;28;20235;-71
2022/09/07 00:44:43;;;;;;;11.97;11.27;;;;;;;14.20;91.03;93314.41;5089206;28;20251;-71
2022/09/07 00:47:30;;;;;;;11.83;11.03;;;;;;;14.21;90.68;93322.00;5087115;28;20193;-71
2022/09/07 00:50:00;;;;;;;11.17;10.47;;;;;;;14.04;90.66;93299.91;5071390;28;20221;-71
2022/09/07 00:52:30;;;;;;;11.53;10.83;;;;;;;13.92;92.21;93321.34;5087524;28;20193;-71
2022/09/07 00:54:59;;;;;;;12.67;11.77;;;;;;;13.93;91.72;93330.75;5089332;28;20221;-71
2022/09/07 00:57:27;;;;;;;12.23;11.23;;;;;;;13.95;91.82;93317.34;5088022;28;20187;-71
2022/09/07 00:59:53;;;;;;;12.10;11.20;;;;;;;13.91;91.39;93304.03;5089408;28;20777;-70
2022/09/07 01:02:19;;;;;;;11.47;10.73;;;;;;;13.81;91.27;93298.09;5089179;28;20211;-71
2022/09/07 01:04:50;;;;;;;12.47;11.67;;;;;;;13.72;91.96;93305.81;5088820;28;20258;-72
2022/09/07 01:07:17;;;;;;;11.63;10.93;;;;;;;13.89;91.48;93305.34;5089466;28;20187;-71
2022/09/07 01:09:46;;;;;;;12.83;11.93;;;;;;;13.94;91.10;93300.06;5087812;28;20676;-71
2022/09/07 01:12:12;;;;;;;12.50;11.67;;;;;;;13.78;91.49;93302.06;5078903;28;20211;-71
2022/09/07 01:14:45;;;;;;;12.63;11.83;;;;;;;13.87;91.62;93302.22;5089204;28;20216;-71
2022/09/07 01:17:17;;;;;;;11.20;10.50;;;;;;;13.85;91.34;93299.88;5088424;28;20177;-71
2022/09/07 01:20:16;;;;;;;12.47;11.57;;;;;;;13.78;91.86;93301.28;5080867;28;20232;-71
2022/09/07 01:22:59;;;;;;;12.73;11.83;;;;;;;13.59;92.92;93301.25;5083493;28;20216;-71
2022/09/07 01:25:34;;;;;;;12.33;11.20;;;;;;;13.69;92.57;93295.09;5074498;28;20247;-72
2022/09/07 01:28:08;;;;;;;11.90;11.10;;;;;;;13.59;92.98;93303.06;5086916;28;20176;-71
2022/09/07 01:30:37;;;;;;;11.97;11.13;;;;;;;13.41;94.03;93285.44;5089001;28;20233;-71
2022/09/07 01:33:20;;;;;;;11.77;10.97;;;;;;;13.60;93.97;93297.56;5089002;28;20185;-71
2022/09/07 01:36:22;;;;;;;13.30;12.40;;;;;;;13.51;94.27;93291.34;5086694;28;20912;-71
2022/09/07 01:38:54;;;;;;;13.20;12.20;;;;;;;13.41;94.38;93288.06;5088346;28;20176;-71
2022/09/07 01:41:42;;;;;;;11.97;11.27;;;;;;;13.53;93.63;93289.25;5089020;28;20764;-71
2022/09/07 01:44:18;;;;;;;12.97;11.87;;;;;;;13.31;93.97;93273.22;5079052;28;20817;-72
2022/09/07 01:46:55;;;;;;;12.87;12.03;;;;;;;13.47;93.80;93295.59;5089011;28;20211;-71
2022/09/07 01:49:32;;;;;;;12.10;11.40;;;;;;;13.30;94.42;93281.38;5086944;28;20225;-71
2022/09/07 01:52:05;;;;;;;12.33;11.37;;;;;;;13.06;94.90;93255.13;5077392;28;20189;-73
2022/09/07 01:54:49;;;;;;;12.53;11.63;;;;;;;13.15;96.59;93292.81;5087540;28;20228;-71
2022/09/07 01:57:21;;;;;;;13.23;12.33;;;;;;;13.05;96.30;93263.25;5089283;28;20283;-71
2022/09/07 01:59:54;;;;;;;13.97;13.07;;;;;;;13.34;94.96;93280.53;5082348;28;20217;-71
2022/09/07 02:02:26;;;;;;;12.67;11.73;;;;;;;13.44;94.42;93290.13;5084240;28;20213;-70
2022/09/07 02:04:51;;;;;;;13.83;12.63;;;;;;;13.30;95.25;93300.50;5087440;28;20224;-71
2022/09/07 02:07:35;;;;;;;13.17;12.03;;;;;;;13.16;96.27;93289.09;5083851;28;20244;-71
2022/09/07 02:10:14;;;;;;;13.60;12.60;;;;;;;13.20;95.82;93274.38;5079738;28;20216;-73
2022/09/07 02:13:02;;;;;;;13.43;12.23;;;;;;;12.98;96.71;93271.41;5080310;28;20181;-72
2022/09/07 02:15:37;;;;;;;13.63;12.67;;;;;;;13.15;96.87;93292.00;5072833;28;20225;-72
2022/09/07 02:18:06;;;;;;;13.60;12.70;;;;;;;13.25;96.98;93297.13;5085526;28;20185;-71
2022/09/07 02:20:36;;;;;;;12.67;11.40;;;;;;;13.18;96.32;93268.66;5083563;28;20224;-71
2022/09/07 02:23:07;;;;;;;11.30;10.60;;;;;;;13.29;96.27;93280.56;5090095;28;20235;-73
2022/09/07 02:25:40;;;;;;;12.40;11.43;;;;;;;13.16;96.66;93289.09;5087049;28;20228;-73
2022/09/07 02:28:15;;;;;;;13.43;12.47;;;;;;;13.12;96.99;93282.06;5092211;28;20181;-72
2022/09/07 02:30:41;;;;;;;12.83;11.80;;;;;;;13.15;96.60;93279.69;5086634;28;20217;-71
2022/09/07 02:33:06;;;;;;;12.23;11.37;;;;;;;13.04;97.18;93290.53;5092771;28;20188;-72
2022/09/07 02:35:32;;;;;;;12.57;11.67;;;;;;;13.01;97.14;93286.66;5086988;28;20221;-72
2022/09/07 02:38:02;;;;;;;13.80;12.53;;;;;;;13.03;97.42;93281.88;5092208;28;20228;-72
2022/09/07 02:40:27;;;;;;;13.27;12.30;;;;;;;13.04;97.80;93278.22;5088065;28;20213;-71
2022/09/07 02:42:53;;;;;;;14.70;13.50;;;;;;;12.98;97.82;93276.66;5092311;28;20243;-72
2022/09/07 02:45:18;;;;;;;13.43;12.33;;;;;;;12.86;98.91;93263.16;5090625;28;20216;-72
2022/09/07 02:48:11;;;;;;;12.17;11.27;;;;;;;12.91;99.28;93290.09;5091378;28;20200;-74
2022/09/07 02:50:43;;;;;;;12.53;11.57;;;;;;;12.83;99.13;93287.28;5088551;28;20229;-73
2022/09/07 02:53:29;;;;;;;13.37;12.27;;;;;;;12.80;99.30;93288.63;5092056;28;20193;-72
2022/09/07 02:56:20;;;;;;;13.53;12.63;;;;;;;12.86;99.30;93281.50;5090401;28;20224;-73
2022/09/07 02:59:04;;;;;;;13.00;12.10;;;;;;;13.04;97.37;93282.69;5090581;28;20211;-72
2022/09/07 03:01:41;;;;;;;11.80;10.90;;;;;;;13.04;96.88;93286.09;5092558;28;20184;-73
2022/09/07 03:04:24;;;;;;;12.37;11.43;;;;;;;12.95;97.31;93288.47;5084759;28;20225;-73
2022/09/07 03:07:09;;;;;;;13.40;12.50;;;;;;;12.86;97.56;93289.34;5091821;28;20193;-73
2022/09/07 03:09:44;;;;;;;13.53;12.43;;;;;;;12.82;97.75;93289.09;5091393;28;20228;-70
2022/09/07 03:12:10;;;;;;;12.27;11.27;;;;;;;12.87;97.32;93285.69;5080717;28;20218;-69
2022/09/07 03:14:39;;;;;;;13.33;12.40;;;;;;;12.75;97.60;93291.28;5089797;28;20229;-70
2022/09/07 03:17:04;;;;;;;13.43;11.87;;;;;;;12.66;98.39;93282.44;5090683;28;20204;-70
2022/09/07 03:19:30;;;;;;;12.93;11.83;;;;;;;12.70;97.56;93274.84;5090910;28;20240;-71
2022/09/07 03:21:55;;;;;;;12.33;11.53;;;;;;;12.79;97.35;93289.66;5091478;28;20200;-71
2022/09/07 03:24:21;;;;;;;12.90;11.93;;;;;;;12.86;96.93;93286.72;5088880;28;20240;-70
2022/09/07 03:26:47;;;;;;;12.53;11.63;;;;;;;12.79;97.05;93279.19;5091114;28;20200;-70
2022/09/07 03:29:13;;;;;;;12.10;11.30;;;;;;;12.81;97.18;93281.53;5091439;28;20232;-72
2022/09/07 03:31:38;;;;;;;13.73;12.67;;;;;;;12.51;98.57;93282.53;5091527;28;20189;-72
2022/09/07 03:34:04;;;;;;;12.93;11.73;;;;;;;12.59;98.21;93270.72;5087959;28;20224;-72
2022/09/07 03:36:30;;;;;;;12.73;11.80;;;;;;;12.48;98.65;93280.47;5091246;28;20191;-72
2022/09/07 03:38:58;;;;;;;12.90;12.00;;;;;;;12.58;99.27;93287.47;5090242;28;20220;-72
2022/09/07 03:41:24;;;;;;;12.03;11.23;;;;;;;12.61;98.52;93294.78;5091257;28;20181;-73
2022/09/07 03:43:49;;;;;;;13.07;12.23;;;;;;;12.48;99.13;93292.81;5090348;28;20177;-72
2022/09/07 03:46:18;;;;;;;12.33;11.53;;;;;;;12.51;99.24;93293.03;5091513;28;20238;-72
2022/09/07 03:48:45;;;;;;;12.90;12.00;;;;;;;12.51;98.91;93303.50;5085359;28;20204;-72
2022/09/07 03:51:11;;;;;;;12.27;11.37;;;;;;;12.44;98.64;93291.78;5091341;28;20177;-72
2022/09/07 03:53:39;;;;;;;12.80;11.83;;;;;;;12.62;98.11;93301.63;5090736;28;20276;-73
2022/09/07 03:56:13;;;;;;;13.87;12.73;;;;;;;12.65;97.38;93303.69;5091205;28;20189;-72
2022/09/07 03:58:38;;;;;;;13.27;12.27;;;;;;;12.60;98.38;93306.34;5090300;28;20176;-73
2022/09/07 04:01:06;;;;;;;12.10;11.37;;;;;;;12.53;98.14;93308.47;5090660;28;20203;-72
2022/09/07 04:03:32;;;;;;;11.60;10.80;;;;;;;12.48;98.19;93287.56;5090539;28;20209;-72
2022/09/07 04:05:58;;;;;;;12.70;11.67;;;;;;;12.61;97.91;93305.25;5090389;28;20264;-72
2022/09/07 04:08:26;;;;;;;13.50;12.43;;;;;;;12.59;97.99;93294.31;5088771;28;20199;-73
2022/09/07 04:10:51;;;;;;;14.73;13.50;;;;;;;12.37;99.36;93284.22;5086837;28;20227;-71
2022/09/07 04:13:16;;;;;;;14.00;12.87;;;;;;;12.57;99.08;93309.50;5088969;28;20850;-73
2022/09/07 04:15:42;;;;;;;13.87;12.87;;;;;;;12.63;98.67;93311.03;5086514;28;20249;-72
2022/09/07 04:18:07;;;;;;;14.40;12.97;;;;;;;12.68;97.53;93292.66;5089689;28;20192;-72
2022/09/07 04:20:33;;;;;;;12.43;11.37;;;;;;;12.74;98.24;93307.28;5083683;28;20252;-73
2022/09/07 04:22:58;;;;;;;13.60;12.53;;;;;;;12.66;98.58;93310.47;5085356;28;20219;-73
2022/09/07 04:25:23;;;;;;;14.77;13.67;;;;;;;12.67;98.68;93304.97;5087246;28;20248;-72
2022/09/07 04:27:49;;;;;;;12.83;11.93;;;;;;;12.85;97.96;93319.25;5087939;28;20200;-73
2022/09/07 04:30:14;;;;;;;12.80;11.80;;;;;;;12.86;97.88;93318.19;5089535;28;20220;-73
2022/09/07 04:32:39;;;;;;;13.37;12.27;;;;;;;12.91;98.05;93312.91;5076665;28;20182;-71
2022/09/07 04:35:06;;;;;;;12.97;12.07;;;;;;;12.98;98.21;93315.97;5081918;28;20232;-72
2022/09/07 04:37:31;;;;;;;13.00;11.90;;;;;;;12.89;98.41;93305.31;5079322;28;20185;-72
2022/09/07 04:39:56;;;;;;;14.17;12.80;;;;;;;12.98;98.81;93313.34;5077928;28;20240;-71
2022/09/07 04:42:22;;;;;;;13.33;12.33;;;;;;;12.95;99.20;93309.44;5085586;28;20212;-71
2022/09/07 04:44:50;;;;;;;14.73;13.43;;;;;;;13.12;98.58;93308.28;5087599;28;20255;-72
2022/09/07 04:47:16;;;;;;;13.80;12.80;;;;;;;13.15;98.48;93323.47;5088829;28;20256;-71
2022/09/07 04:49:42;;;;;;;13.17;12.13;;;;;;;13.26;98.12;93315.22;5088583;28;20252;-69
2022/09/07 04:52:07;;;;;;;12.97;11.87;;;;;;;13.28;97.65;93315.72;5087644;28;20193;-69
2022/09/07 04:54:33;;;;;;;13.43;12.33;;;;;;;13.43;97.39;93322.69;5090607;28;20223;-70
2022/09/07 04:56:58;;;;;;;13.93;12.77;;;;;;;13.54;96.75;93339.88;5081350;28;20271;-72
2022/09/07 04:59:23;;;;;;;13.53;12.23;;;;;;;13.58;97.16;93336.41;5086742;28;20828;-73
2022/09/07 05:01:49;;;;;;;14.37;13.30;;;;;;;13.66;96.39;93338.44;5088876;28;20212;-72
2022/09/07 05:04:14;;;;;;;14.60;13.50;;;;;;;13.73;96.51;93335.44;5088406;28;20228;-72
2022/09/07 05:06:39;;;;;;;15.10;13.87;;;;;;;13.82;95.99;93334.56;5083912;28;20200;-72
2022/09/07 05:09:05;;;;;;;15.33;13.73;;;;;;;13.81;95.23;93337.47;5087729;28;20490;-71
2022/09/07 05:11:30;;;;;;;13.97;12.87;;;;;;;13.98;94.28;93322.81;5083613;28;20209;-73
2022/09/07 05:14:00;;;;;;;15.23;13.93;;;;;;;14.14;93.67;93339.97;5085908;28;20229;-70
2022/09/07 05:16:28;;;;;;;14.83;13.33;;;;;;;14.34;91.80;93331.06;5087874;28;20216;-69
2022/09/07 05:18:56;;;;;;;14.60;13.40;;;;;;;14.28;91.07;93327.72;5080161;28;20224;-69
2022/09/07 05:21:27;;;;;;;15.30;12.23;;;;;;;14.42;90.33;93339.09;5086696;28;20193;-70
2022/09/07 05:23:55;;;;;;;13.70;12.50;;;;;;;14.35;89.98;93338.66;5087958;28;20228;-70
2022/09/07 05:26:22;;;;;;;14.17;13.17;;;;;;;14.32;89.73;93325.31;5085059;28;20223;-72
2022/09/07 05:28:48;;;;;;;14.57;13.37;;;;;;;14.48;89.18;93342.44;5079896;28;20219;-71
2022/09/07 05:31:16;;;;;;;14.57;13.37;;;;;;;14.44;89.22;93333.56;5077432;28;20264;-71
2022/09/07 05:33:52;;;;;;;14.20;12.93;;;;;;;14.61;87.59;93331.22;5082687;28;20192;-70
2022/09/07 05:36:19;;;;;;;13.93;12.83;;;;;;;14.30;89.77;93315.06;5080843;28;20248;-71
2022/09/07 05:38:45;;;;;;;14.97;13.90;;;;;;;14.44;91.03;93330.94;5075601;28;20182;-71
2022/09/07 05:41:13;;;;;;;14.67;13.47;;;;;;;14.46;90.17;93339.28;5080639;28;20224;-71
2022/09/07 05:43:39;;;;;;;14.00;13.10;;;;;;;14.56;89.81;93336.53;5080898;28;20207;-71
2022/09/07 05:46:05;;;;;;;14.23;13.17;;;;;;;14.59;90.27;93345.69;5084657;28;20172;-72
2022/09/07 05:48:30;;;;;;;13.97;12.77;;;;;;;14.56;89.88;93319.97;5078983;28;20216;-72
2022/09/07 05:50:55;;;;;;;12.40;11.60;;;;;;;14.98;86.81;93339.06;5082318;28;20200;-71
2022/09/07 05:53:21;;;;;;;14.27;12.93;;;;;;;14.56;87.95;93333.91;5088632;28;20227;-71
2022/09/07 05:55:48;;;;;;;12.70;11.70;;;;;;;14.68;87.12;93330.88;5079297;28;20579;-72
2022/09/07 05:58:14;;;;;;;12.60;11.70;;;;;;;14.76;87.07;93306.53;5091197;28;20189;-72
2022/09/07 06:00:39;;;;;;;13.90;12.90;;;;;;;15.21;85.67;93335.53;5092009;28;20228;-73
2022/09/07 06:03:04;;;;;;;14.37;13.00;;;;;;;15.36;84.43;93329.22;5089154;28;20234;-73
2022/09/07 06:05:30;;;;;;;13.77;12.80;;;;;;;15.57;83.05;93338.34;5084778;28;20223;-72
2022/09/07 06:07:55;;;;;;;12.97;11.90;;;;;;;15.56;82.53;93342.06;5088389;28;20177;-72
2022/09/07 06:10:21;;;;;;;13.80;12.77;;;;;;;15.30;83.46;93339.03;5087879;28;20216;-71
2022/09/07 06:12:46;;;;;;;11.03;10.33;;;;;;;15.56;82.28;93342.84;5086278;28;20204;-71
2022/09/07 06:15:12;;;;;;;11.23;10.53;;;;;;;15.41;80.24;93344.97;5090410;28;20224;-71
2022/09/07 06:17:37;;;;;;;11.27;10.23;;;;;;;15.91;76.77;93346.66;5083610;28;20197;-71
2022/09/07 06:20:05;;;;;;;10.43;9.83;;;;;;;15.93;77.28;93347.16;5087775;28;20215;-71
2022/09/07 06:22:30;;;;;;;9.97;9.37;;;;;;;16.19;73.96;93340.31;5092407;28;20207;-72
2022/09/07 06:24:55;;;;;;;10.37;9.43;;;;;;;16.27;72.53;93354.63;5091507;28;20224;-72
2022/09/07 06:27:21;;;;;;;10.23;9.43;;;;;;;16.15;74.52;93349.09;5091283;28;20244;-72
2022/09/07 06:29:46;;;;;;;10.03;9.23;;;;;;;16.28;73.51;93349.06;5086805;28;20225;-74
2022/09/07 06:32:11;;;;;;;9.80;9.23;;;;;;;16.01;74.28;93355.16;5086968;28;20209;-73
2022/09/07 06:34:37;;;;;;;9.73;9.23;;;;;;;15.97;73.07;93348.13;5089098;28;20379;-73
2022/09/07 06:37:02;;;;;;;9.87;9.17;;;;;;;16.13;72.72;93348.59;5085788;28;20687;-72
2022/09/07 06:39:27;;;;;;;10.00;9.43;;;;;;;16.20;71.69;93344.50;5088259;28;20236;-70
2022/09/07 06:41:53;;;;;;;9.47;8.77;;;;;;;16.62;69.35;93344.19;5091422;28;20230;-73
2022/09/07 06:44:18;;;;;;;8.97;8.47;;;;;;;16.85;68.42;93353.69;5091196;28;20232;-72
2022/09/07 06:46:44;;;;;;;9.73;9.13;;;;;;;17.09;67.54;93359.44;5086495;28;20221;-72
2022/09/07 06:49:09;;;;;;;8.93;8.43;;;;;;;17.15;67.77;93370.66;5089800;28;20213;-74
2022/09/07 06:51:35;;;;;;;10.10;9.50;;;;;;;16.83;70.28;93362.94;5091079;28;20203;-74
2022/09/07 06:54:00;;;;;;;11.97;10.97;;;;;;;17.16;70.42;93364.28;5094006;28;20232;-76
2022/09/07 06:56:27;;;;;;;9.47;8.80;;;;;;;17.25;65.64;93362.50;5087947;28;20192;-74
2022/09/07 06:58:53;;;;;;;11.37;10.43;;;;;;;17.14;66.97;93377.00;5087000;28;20239;-74
2022/09/07 07:01:19;;;;;;;8.23;7.83;;;;;;;17.00;68.29;93369.16;5085523;28;20192;-73
2022/09/07 07:03:45;;;;;;;9.33;8.80;;;;;;;16.75;69.40;93353.88;5090840;28;20264;-74
2022/09/07 07:06:11;;;;;;;8.93;8.33;;;;;;;16.99;68.17;93377.38;5088441;28;20205;-74
2022/09/07 07:08:38;;;;;;;9.20;8.60;;;;;;;17.05;68.28;93371.69;5089295;28;20212;-74
2022/09/07 07:11:09;;;;;;;8.90;8.40;;;;;;;17.30;67.47;93392.19;5091060;28;20243;-74
2022/09/07 07:13:35;;;;;;;9.70;9.20;;;;;;;17.58;66.56;93391.03;5088668;28;20193;-74
2022/09/07 07:16:07;;;;;;;9.60;9.00;;;;;;;17.53;65.93;93390.34;5089565;28;20189;-74
2022/09/07 07:18:33;;;;;;;10.23;9.33;;;;;;;17.20;66.90;93389.78;5089609;28;20472;-73
2022/09/07 07:21:07;;;;;;;9.97;9.37;;;;;;;17.48;66.61;93393.91;5089143;28;20184;-73
2022/09/07 07:23:33;;;;;;;9.60;9.00;;;;;;;17.66;65.31;93357.03;5085020;28;20264;-77
2022/09/07 07:26:11;;;;;;;9.53;8.87;;;;;;;17.68;67.03;93392.63;5087361;28;20195;-73
2022/09/07 07:28:36;;;;;;;9.37;8.87;;;;;;;17.84;64.49;93395.66;5087994;28;20184;-73
2022/09/07 07:31:04;;;;;;;9.47;8.87;;;;;;;17.84;63.92;93398.31;5088271;28;20208;-73
2022/09/07 07:33:32;;;;;;;9.33;8.53;;;;;;;17.35;66.11;93378.84;5080985;28;20187;-74
2022/09/07 07:36:11;;;;;;;9.70;9.13;;;;;;;17.90;65.59;93389.91;5089458;28;20214;-73
2022/09/07 07:38:37;;;;;;;10.07;9.23;;;;;;;18.03;64.44;93385.63;5085513;28;20212;-74
2022/09/07 07:41:02;;;;;;;8.93;8.43;;;;;;;18.19;64.91;93381.50;5090295;28;20252;-72
2022/09/07 07:43:27;;;;;;;9.67;8.80;;;;;;;18.46;64.80;93397.19;5088348;28;20222;-73
2022/09/07 07:45:54;;;;;;;10.50;9.90;;;;;;;18.28;63.27;93395.53;5085268;28;20278;-72
2022/09/07 07:48:20;;;;;;;9.73;9.13;;;;;;;18.37;62.92;93393.69;5089771;28;20276;-71
2022/09/07 07:50:56;;;;;;;10.13;9.37;;;;;;;18.55;62.21;93398.75;5088532;28;20224;-71
2022/09/07 07:53:22;;;;;;;9.03;8.47;;;;;;;18.28;62.97;93384.94;5088493;28;20190;-72
2022/09/07 07:55:47;;;;;;;11.37;10.33;;;;;;;17.93;66.25;93399.13;5087713;28;20251;-72
2022/09/07 07:58:13;;;;;;;9.73;9.03;;;;;;;18.50;65.30;93392.81;5088428;28;20185;-73
2022/09/07 08:00:38;;;;;;;9.63;8.93;;;;;;;18.78;62.12;93394.91;5084192;28;20272;-75
2022/09/07 08:03:03;;;;;;;11.13;10.13;;;;;;;18.82;62.35;93395.84;5078418;28;20219;-70
2022/09/07 08:05:29;;;;;;;9.73;8.93;;;;;;;18.87;62.23;93393.06;5089169;28;20221;-71
2022/09/07 08:07:54;;;;;;;9.83;8.17;;;;;;;18.92;62.26;93395.56;5089448;28;20968;-69
2022/09/07 08:10:21;;;;;;;10.23;9.37;;;;;;;18.86;62.18;93386.19;5087972;28;20246;-72
2022/09/07 08:12:46;;;;;;;9.30;8.73;;;;;;;18.84;61.74;93377.81;5085624;28;20206;-73
2022/09/07 08:15:12;;;;;;;11.27;8.97;;;;;;;18.56;62.88;93396.88;5089670;28;20223;-73
2022/09/07 08:17:37;;;;;;;9.10;8.40;;;;;;;18.52;64.43;93391.41;5089052;28;20235;-74
2022/09/07 08:20:03;;;;;;;8.67;8.27;;;;;;;19.07;62.19;93395.09;5080100;28;20225;-74
2022/09/07 08:22:28;;;;;;;9.10;8.57;;;;;;;19.05;62.40;93389.31;5081937;28;20225;-71
2022/09/07 08:24:54;;;;;;;9.57;8.67;;;;;;;19.39;62.57;93398.38;5089095;28;20214;-72
2022/09/07 08:27:19;;;;;;;9.20;8.40;;;;;;;19.58;60.99;93393.53;5089350;28;20193;-72
2022/09/07 08:29:44;;;;;;;8.90;8.40;;;;;;;19.64;60.33;93395.72;5088929;28;20234;-72
2022/09/07 08:32:10;;;;;;;8.87;8.37;;;;;;;19.55;60.92;93402.13;5090322;28;20204;-71
2022/09/07 08:34:36;;;;;;;11.23;10.27;;;;;;;19.20;63.16;93380.16;5088300;28;20256;-72
2022/09/07 08:37:01;;;;;;;8.70;8.20;;;;;;;19.46;62.82;93394.16;5086337;28;20194;-72
2022/09/07 08:39:27;;;;;;;9.17;8.60;;;;;;;19.55;62.51;93386.22;5089193;28;20223;-73
2022/09/07 08:41:55;;;;;;;10.37;9.87;;;;;;;19.51;61.57;93386.06;5088123;28;20222;-73
2022/09/07 08:44:33;;;;;;;8.53;8.03;;;;;;;19.81;60.92;93386.94;5081895;28;20261;-73
2022/09/07 08:47:37;;;;;;;9.63;8.67;;;;;;;19.90;61.19;93379.72;5089027;28;20253;-72
2022/09/07 08:50:28;;;;;;;9.00;8.40;;;;;;;20.20;58.77;93387.44;5093158;28;20219;-73
2022/09/07 08:53:13;;;;;;;11.10;9.13;;;;;;;20.13;60.56;93379.22;5086137;28;20183;-72
2022/09/07 08:55:57;;;;;;;9.87;9.17;;;;;;;20.18;60.56;93371.09;5088378;28;20247;-73
2022/09/07 08:58:45;;;;;;;10.10;9.30;;;;;;;19.89;60.25;93376.31;5087053;28;20222;-73
2022/09/07 09:01:29;;;;;;;9.67;9.07;;;;;;;20.07;61.03;93377.81;5081666;28;20311;-73
2022/09/07 09:03:54;;;;;;;12.13;9.20;;;;;;;20.15;60.04;93357.69;5085664;28;20222;-72
2022/09/07 09:06:38;;;;;;;9.83;9.23;;;;;;;20.04;59.81;93367.84;5077493;28;20276;-74
2022/09/07 09:09:15;;;;;;;9.90;9.20;;;;;;;19.95;60.91;93372.41;5088242;28;20242;-73
2022/09/07 09:11:43;;;;;;;9.47;8.87;;;;;;;19.70;61.36;93367.94;5083809;28;20231;-72
2022/09/07 09:14:35;;;;;;;9.23;8.63;;;;;;;20.14;60.75;93370.16;5080713;28;20242;-73
2022/09/07 09:17:13;;;;;;;9.67;8.97;;;;;;;20.17;60.95;93350.97;5082671;28;20179;-71
2022/09/07 09:19:47;;;;;;;9.33;8.73;;;;;;;20.69;57.23;93362.88;5087894;28;20338;-72
2022/09/07 09:22:17;;;;;;;9.93;9.18;;;;;;;20.81;57.95;93353.44;5088770;28;20215;-74
2022/09/07 09:24:50;;;;;;;10.00;9.32;;;;;;;20.63;57.33;93345.56;5088057;28;20291;-73
2022/09/07 09:27:16;;;;;;;10.07;9.15;;;;;;;20.20;59.68;93352.97;5089265;28;20207;-73
2022/09/07 09:29:41;;;;;;;9.70;9.00;;;;;;;20.70;57.06;93356.44;5085980;28;20215;-73
2022/09/07 09:32:40;;;;;;;10.67;9.97;;;;;;;20.80;56.57;93351.84;5088460;28;20188;-73
2022/09/07 09:35:30;;;;;;;10.52;9.05;;;;;;;20.56;57.43;93350.59;5086840;28;20237;-74
2022/09/07 09:37:58;;;;;;;10.00;9.30;;;;;;;20.73;56.95;93345.19;5082356;28;20250;-72
2022/09/07 09:40:26;;;;;;;9.93;8.95;;;;;;;20.80;57.49;93344.69;5085873;28;20211;-74
2022/09/07 09:43:02;;;;;;;10.00;9.30;;;;;;;20.78;56.61;93338.91;5087950;28;20207;-73
2022/09/07 09:45:32;;;;;;;10.27;9.10;;;;;;;21.22;55.89;93345.47;5086912;28;20280;-74
2022/09/07 09:47:59;;;;;;;9.90;9.05;;;;;;;21.17;53.91;93319.13;5084949;28;20188;-73
2022/09/07 09:50:35;;;;;;;9.35;8.75;;;;;;;21.42;55.37;93347.31;5089026;28;20222;-74
2022/09/07 09:53:01;;;;;;;9.43;8.70;;;;;;;21.48;54.38;93340.72;5087734;28;20219;-76
2022/09/07 09:55:31;;;;;;;10.10;9.40;;;;;;;21.38;52.82;93341.13;5073653;28;20228;-74
2022/09/07 09:58:46;;;;;;;8.80;8.20;;;;;;;21.52;53.73;93341.59;5088001;28;20263;-74
2022/09/07 10:01:22;;;;;;;10.00;9.35;;;;;;;21.12;54.78;93337.91;5084873;28;20196;-73
2022/09/07 10:03:47;;;;;;;10.60;9.73;;;;;;;21.20;54.50;93334.41;5081160;28;20217;-74
2022/09/07 10:06:15;;;;;;;9.32;8.68;;;;;;;21.47;52.89;93339.16;5089147;28;20192;-74
2022/09/07 10:08:53;;;;;;;9.27;8.68;;;;;;;21.43;51.75;93343.56;5086619;28;20215;-74
2022/09/07 10:11:40;;;;;;;9.07;8.48;;;;;;;21.52;53.21;93329.09;5084762;28;20242;-74
2022/09/07 10:14:17;;;;;;;8.93;8.43;;;;;;;21.61;51.87;93319.16;5084862;28;20235;-73
2022/09/07 10:16:43;;;;;;;9.53;8.93;;;;;;;21.77;51.78;93327.31;5084524;28;20214;-73
2022/09/07 10:19:35;;;;;;;9.30;8.65;;;;;;;21.90;51.45;93323.53;5087935;28;20257;-73
2022/09/07 10:22:04;;;;;;;9.13;8.43;;;;;;;21.91;50.29;93325.13;5077445;28;20221;-73
2022/09/07 10:24:40;;;;;;;10.27;9.38;;;;;;;21.38;53.18;93314.53;5086981;28;20231;-72
2022/09/07 10:27:24;;;;;;;9.52;8.73;;;;;;;21.53;53.73;93308.59;5087862;28;20193;-72
2022/09/07 10:29:49;;;;;;;8.95;8.43;;;;;;;21.96;52.30;93311.59;5087595;28;20740;-74
2022/09/07 10:32:28;;;;;;;9.07;8.40;;;;;;;21.91;50.67;93291.34;5088068;28;20238;-74
2022/09/07 10:35:12;;;;;;;9.57;8.88;;;;;;;22.03;50.76;93315.28;5086170;28;20213;-73
2022/09/07 10:38:16;;;;;;;9.77;8.98;;;;;;;21.72;52.42;93298.25;5084186;28;20191;-73
2022/09/07 10:40:44;;;;;;;9.25;8.65;;;;;;;22.03;51.26;93299.31;5080607;28;20231;-74
2022/09/07 10:43:10;;;;;;;9.48;8.88;;;;;;;21.81;52.14;93297.06;5090227;28;20233;-75
2022/09/07 10:46:01;;;;;;;9.77;9.15;;;;;;;22.17;50.61;93298.97;5089692;28;20237;-75
2022/09/07 10:48:47;;;;;;;9.18;8.48;;;;;;;21.98;52.20;93304.84;5091772;28;20189;-75
2022/09/07 10:51:23;;;;;;;10.25;9.15;;;;;;;21.68;52.87;93287.47;5086009;28;20198;-74
2022/09/07 10:53:54;;;;;;;10.23;9.57;;;;;;;21.81;52.18;93285.66;5089763;28;20193;-73
2022/09/07 10:56:31;;;;;;;9.75;9.15;;;;;;;22.04;54.72;93287.56;5091374;28;20186;-72
2022/09/07 10:58:59;;;;;;;9.52;8.75;;;;;;;22.49;51.25;93295.38;5089698;28;20252;-74
2022/09/07 11:01:41;;;;;;;9.80;9.05;;;;;;;22.61;51.14;93284.00;5086748;28;20221;-74
2022/09/07 11:04:31;;;;;;;9.60;8.90;;;;;;;22.64;49.72;93283.31;5084688;28;20223;-74
2022/09/07 11:07:25;;;;;;;10.68;9.77;;;;;;;22.31;50.07;93288.78;5086993;28;20198;-76
2022/09/07 11:09:57;;;;;;;9.43;8.82;;;;;;;22.50;51.83;93278.34;5084286;28;20285;-74
2022/09/07 11:12:34;;;;;;;9.38;8.68;;;;;;;22.70;50.33;93274.78;5086308;28;20203;-74
2022/09/07 11:15:12;;;;;;;9.32;8.73;;;;;;;22.59;51.40;93273.69;5090070;28;20218;-75
2022/09/07 11:17:43;;;;;;;8.88;8.27;;;;;;;22.38;51.78;93264.25;5091247;28;20748;-75
2022/09/07 11:20:24;;;;;;;8.60;8.10;;;;;;;22.73;51.21;93273.31;5087703;28;20218;-74
2022/09/07 11:23:01;;;;;;;9.43;8.93;;;;;;;22.91;49.45;93278.03;5088519;28;20966;-73
2022/09/07 11:26:10;;;;;;;8.90;8.30;;;;;;;22.86;49.98;93266.84;5090785;28;20220;-75
2022/09/07 11:29:00;;;;;;;9.90;9.20;;;;;;;22.93;50.22;93259.81;5089665;28;20191;-75
2022/09/07 11:31:34;;;;;;;9.32;8.70;;;;;;;23.09;50.13;93259.88;5090321;28;20195;-74
2022/09/07 11:34:21;;;;;;;9.90;9.30;;;;;;;23.07;48.85;93262.09;5090515;28;21248;-74
2022/09/07 11:37:09;;;;;;;10.07;9.43;;;;;;;23.07;50.11;93257.56;5085031;28;20218;-74
2022/09/07 11:39:43;;;;;;;8.80;8.18;;;;;;;23.21;50.04;93257.94;5090319;28;20266;-74
2022/09/07 11:42:30;;;;;;;9.40;8.80;;;;;;;23.03;49.05;93258.56;5085362;28;20218;-75